Rechercher aéroport 
image banner adimage banner adimage banner ad
image banner ad

CA02 - Frank R Howard Memorial Hospital

Situé à Willits, United States

ICAO - CA02, IATA -

Données fournies par Airmate  

Information générale

Coordonnées: N39°23'21" W123°20'21"
Élévation : 1401 feet MSL.
Variation magnétique : 14° East
Voir autres Aéroports à California

Données opérationnelles

Special qualification required
Heure actuelle UTC:
Heure actuelle locale:
Météo à : KUKI - Ukiah Muni ( 32 km )
METAR: KUKI 210056Z AUTO 30003KT 10SM CLR 33/06 A2990 RMK AO2 SLP116 T03280056
TAF: KUKI 202333Z 2100/2124 30006KT P6SM SKC FM210200 VRB02KT P6SM SKC FM212100 14007KT P6SM SKC
Voir NOTAMs / SUP AIP / TFR affectant cet aéroport [VIEW]
Fréquences de communication: [VIEW]

Pistes:

Coordonnées de l'aéroport

Adresse: Willits United States

Vue satellite de CA02